Zim Vancouver — A8LK5 — position and weather

sailwx.info

Track history (hours):
 
Tides and Currents Weather Stations Pressure Air Temp Water Temp Dewpoint Dewpoint Depression Visibility Wind Speed Wind Dir Waves Ship Positions

Zim Vancouver

Last reported at 2017-Nov-18 11:18 UTC. Time now 2017-Nov-18 12:25 UTC.
Position N 22°07' E 114°22'.

Length 260 m; draft 12.4 m.

Type: Ship. MMSI: 636013214.

Date/timePositionNaut miles runAvg speedWind from/ knotsBaromVisibWave heightAir tempDewpointWater temp
2017-Nov-18 11:18N 22°07' E 114°22'2 8.0
2017-Nov-18 11:00N 22°05' E 114°24'4 8.1
2017-Nov-18 10:30N 22°02' E 114°22'4 8.3
2017-Nov-18 09:59N 21°58' E 114°20'  
2017-Nov-13 01:59N 01°15' E 104°03'715.5
2017-Nov-13 01:30N 01°13' E 103°56'612.6
2017-Nov-13 01:01N 01°10' E 103°50'713.6
2017-Nov-13 00:30N 01°06' E 103°44'611.4
2017-Nov-12 23:59N 01°03' E 103°40'612.2
2017-Nov-12 23:30N 01°05' E 103°34'814.5
2017-Nov-12 22:59N 01°09' E 103°28'913.2
2017-Nov-12 22:20N 01°14' E 103°21'  
Track history (hours):
 
Tides and Currents Weather Stations Pressure Air Temp Water Temp Dewpoint Dewpoint Depression Visibility Wind Speed Wind Dir Waves Ship Positions

Zim Vancouver

Last reported at 2017-Nov-18 11:18 UTC. Time now 2017-Nov-18 12:25 UTC.
Position N 22°07' E 114°22'.

Length 260 m; draft 12.4 m.

Type: Ship. MMSI: 636013214.

Date/timePositionNaut miles runAvg speedWind from/ knotsBaromVisibWave heightAir tempDewpointWater temp
2017-Nov-18 11:18N 22°07' E 114°22'2 8.0
2017-Nov-18 11:00N 22°05' E 114°24'4 8.1
2017-Nov-18 10:30N 22°02' E 114°22'4 8.3
2017-Nov-18 09:59N 21°58' E 114°20'  
2017-Nov-13 01:59N 01°15' E 104°03'715.5
2017-Nov-13 01:30N 01°13' E 103°56'612.6
2017-Nov-13 01:01N 01°10' E 103°50'713.6
2017-Nov-13 00:30N 01°06' E 103°44'611.4
2017-Nov-12 23:59N 01°03' E 103°40'612.2
2017-Nov-12 23:30N 01°05' E 103°34'814.5
2017-Nov-12 22:59N 01°09' E 103°28'913.2
2017-Nov-12 22:20N 01°14' E 103°21'  

Dump ship's entire track history